Time;durP1;ratioP1;P1;durP2;ratioP2;P2;SDS_P1;SDS_P2;PMS_P1;PMS_P2;Temp;Humidity;BMP_temperature;BMP_pressure;BME280_temperature;BME280_humidity;BME280_pressure;Samples;Min_cycle;Max_cycle;Signal;HPM_P1;HPM_P2
2023/01/19 00:02:46;;;;;;;2.70;1.83;;;;;;;16.29;48.05;95572.84;10377832;28;20037;-27
2023/01/19 00:07:46;;;;;;;2.45;1.73;;;;;;;16.29;47.66;95577.88;10366076;28;20038;-27
2023/01/19 00:12:47;;;;;;;2.20;1.80;;;;;;;16.30;47.93;95577.03;10359991;28;20423;-28
2023/01/19 00:17:47;;;;;;;2.57;2.10;;;;;;;16.34;47.42;95578.69;10370186;28;20458;-27
2023/01/19 00:22:49;;;;;;;2.30;2.07;;;;;;;16.32;47.13;95592.19;10354594;28;20030;-28
2023/01/19 00:27:50;;;;;;;2.03;1.73;;;;;;;16.32;46.95;95592.19;10363300;28;20516;-27
2023/01/19 00:32:50;;;;;;;2.30;1.60;;;;;;;16.33;47.01;95589.66;10365340;28;20112;-28
2023/01/19 00:37:50;;;;;;;1.47;1.27;;;;;;;16.29;46.67;95582.94;10361155;28;20037;-28
2023/01/19 00:42:51;;;;;;;2.30;1.83;;;;;;;16.31;46.98;95586.31;10381167;28;20035;-27
2023/01/19 00:47:55;;;;;;;1.50;1.40;;;;;;;16.29;47.51;95592.22;10360338;28;20037;-28
2023/01/19 00:52:59;;;;;;;1.85;1.60;;;;;;;16.31;47.72;95590.50;10370906;28;20375;-27
2023/01/19 00:58:01;;;;;;;2.15;1.73;;;;;;;16.32;46.90;95602.28;10364002;28;20437;-27
2023/01/19 01:03:02;;;;;;;2.58;1.60;;;;;;;16.32;46.58;95604.81;10364146;28;20026;-28
2023/01/19 01:08:02;;;;;;;1.70;1.20;;;;;;;16.30;46.90;95609.88;10362180;28;20034;-27
2023/01/19 01:13:02;;;;;;;2.53;1.60;;;;;;;16.29;47.12;95612.41;10363938;28;20022;-28
2023/01/19 01:18:03;;;;;;;1.73;1.33;;;;;;;16.30;46.56;95609.03;10373231;28;20292;-28
2023/01/19 01:23:03;;;;;;;3.70;1.40;;;;;;;16.28;46.50;95614.09;10358796;28;20034;-28
2023/01/19 01:28:07;;;;;;;1.83;1.40;;;;;;;16.30;46.73;95625.00;10358741;28;20490;-28
2023/01/19 01:33:07;;;;;;;1.58;1.13;;;;;;;16.29;46.28;95630.91;10373796;28;20449;-28
2023/01/19 01:38:08;;;;;;;1.42;1.30;;;;;;;16.27;46.11;95624.22;10361831;28;20092;-27
2023/01/19 01:43:13;;;;;;;3.08;1.80;;;;;;;16.26;46.38;95625.91;10365906;28;20041;-28
2023/01/19 01:48:21;;;;;;;1.88;1.40;;;;;;;16.24;46.15;95635.19;10381137;28;20117;-27
2023/01/19 01:53:22;;;;;;;1.95;1.33;;;;;;;16.26;46.76;95642.72;10367223;28;20567;-26
2023/01/19 01:58:22;;;;;;;1.60;1.30;;;;;;;16.25;46.57;95652.00;10373630;28;20128;-28
2023/01/19 02:03:24;;;;;;;2.53;1.20;;;;;;;16.23;46.62;95646.16;10374936;28;20308;-28
2023/01/19 02:13:57;;;;;;;1.52;1.17;;;;;;;16.26;46.34;95646.09;10375257;28;20029;-27
2023/01/19 02:18:57;;;;;;;3.28;1.30;;;;;;;16.24;46.24;95637.72;10372043;28;20041;-28
2023/01/19 02:24:00;;;;;;;1.20;1.10;;;;;;;16.23;46.37;95661.28;10378870;28;20087;-27
2023/01/19 02:29:08;;;;;;;1.48;1.20;;;;;;;16.24;46.11;95647.81;10375811;28;20033;-28
2023/01/19 02:34:11;;;;;;;1.20;0.88;;;;;;;16.27;45.66;95649.47;10372276;28;20034;-29
2023/01/19 02:39:14;;;;;;;1.55;1.08;;;;;;;16.25;46.10;95654.53;10378497;28;20026;-27
2023/01/19 02:44:17;;;;;;;2.47;1.70;;;;;;;16.17;46.43;95651.25;10380209;28;20072;-27
2023/01/19 02:49:17;;;;;;;1.10;1.00;;;;;;;16.23;45.66;95661.28;10375066;28;20144;-28
2023/01/19 02:54:40;;;;;;;1.60;1.30;;;;;;;16.26;45.10;95653.69;10372898;28;20544;-27
2023/01/19 02:59:57;;;;;;;1.58;1.08;;;;;;;16.24;46.05;95657.06;10385135;28;20034;-27
2023/01/19 03:05:02;;;;;;;1.38;0.90;;;;;;;16.22;46.17;95651.19;10377327;28;20110;-27
2023/01/19 03:10:26;;;;;;;2.03;1.10;;;;;;;16.22;46.07;95641.09;10379809;28;20065;-27
2023/01/19 03:15:54;;;;;;;1.27;0.85;;;;;;;16.24;45.17;95635.19;10374778;28;20042;-28
2023/01/19 03:21:00;;;;;;;1.42;1.30;;;;;;;16.23;45.28;95641.09;10363985;28;20108;-28
2023/01/19 03:26:02;;;;;;;1.23;0.80;;;;;;;16.28;45.58;95646.09;10382831;28;20120;-27
2023/01/19 03:31:10;;;;;;;1.42;1.00;;;;;;;16.27;45.80;95645.25;10372583;28;20030;-27
2023/01/19 03:36:17;;;;;;;1.17;0.90;;;;;;;16.24;45.71;95639.38;10376389;28;20037;-28
2023/01/19 03:41:20;;;;;;;1.00;0.73;;;;;;;16.22;45.77;95644.47;10375022;28;20030;-28
2023/01/19 03:46:23;;;;;;;1.00;0.85;;;;;;;16.22;45.45;95656.25;10381040;28;20030;-27
2023/01/19 03:51:23;;;;;;;1.80;0.95;;;;;;;16.21;45.30;95644.47;10370201;28;20026;-28
2023/01/19 03:56:24;;;;;;;1.00;0.70;;;;;;;16.20;45.31;95651.19;10368834;28;20163;-28
2023/01/19 04:01:25;;;;;;;1.08;0.90;;;;;;;16.18;45.67;95650.38;10376910;28;20041;-28
2023/01/19 04:06:25;;;;;;;1.20;0.90;;;;;;;16.21;44.90;95655.41;10374238;28;20528;-29
2023/01/19 04:11:26;;;;;;;1.20;1.08;;;;;;;16.21;45.62;95652.06;10382898;28;20052;-28
2023/01/19 04:16:26;;;;;;;2.37;1.10;;;;;;;16.19;45.44;95659.63;10375719;28;20033;-28
2023/01/19 04:21:26;;;;;;;1.17;0.97;;;;;;;16.19;45.28;95664.69;10356770;28;20096;-27
2023/01/19 04:26:27;;;;;;;1.67;0.90;;;;;;;16.21;44.94;95662.16;10374996;28;20037;-28
2023/01/19 04:31:27;;;;;;;0.87;0.77;;;;;;;16.19;45.56;95659.63;10354534;28;20038;-27
2023/01/19 04:36:28;;;;;;;1.13;0.88;;;;;;;16.17;45.38;95666.38;10367589;28;20042;-27
2023/01/19 04:41:28;;;;;;;1.63;0.80;;;;;;;16.17;45.28;95668.06;10356702;28;20145;-27
2023/01/19 04:46:28;;;;;;;0.93;0.80;;;;;;;16.21;45.07;95674.78;10365685;28;20409;-28
2023/01/19 04:51:29;;;;;;;2.20;0.67;;;;;;;16.23;45.00;95671.41;10325882;28;20289;-28
2023/01/19 04:56:29;;;;;;;1.57;0.90;;;;;;;16.22;45.77;95684.88;10361122;28;20289;-29
2023/01/19 05:01:30;;;;;;;3.00;1.10;;;;;;;16.25;44.71;95684.00;10351832;28;20030;-28
2023/01/19 05:06:30;;;;;;;2.30;0.80;;;;;;;16.26;44.97;95684.00;10360677;28;20489;-28
2023/01/19 05:11:30;;;;;;;1.63;0.80;;;;;;;16.32;43.60;95688.16;10360609;28;20048;-28
2023/01/19 05:16:31;;;;;;;1.07;0.60;;;;;;;16.31;44.65;95689.84;10351533;28;20038;-28
2023/01/19 05:21:31;;;;;;;1.00;0.80;;;;;;;16.30;43.77;95688.16;10371528;28;20056;-28
2023/01/19 05:26:32;;;;;;;1.67;0.60;;;;;;;16.30;44.56;95688.16;10370366;28;20040;-27
2023/01/19 05:31:32;;;;;;;0.70;0.70;;;;;;;16.32;44.07;95690.66;10369604;28;20048;-27
2023/01/19 05:36:33;;;;;;;1.63;0.80;;;;;;;16.29;43.28;95689.00;10361776;28;20052;-28
2023/01/19 05:41:33;;;;;;;2.57;1.37;;;;;;;16.31;42.85;95699.97;10366043;28;20081;-28
2023/01/19 05:46:34;;;;;;;2.47;1.00;;;;;;;16.25;42.34;95702.50;10379828;28;20033;-28
2023/01/19 05:51:36;;;;;;;1.00;0.77;;;;;;;16.29;43.50;95699.09;10375813;28;20034;-27
2023/01/19 05:56:38;;;;;;;2.10;0.82;;;;;;;16.33;42.83;95720.97;10370127;28;20815;-28
2023/01/19 06:01:38;;;;;;;1.88;1.13;;;;;;;16.32;44.06;95726.88;10372273;28;20567;-28
2023/01/19 06:06:39;;;;;;;3.30;0.93;;;;;;;16.28;45.48;95717.63;10372003;28;20222;-27
2023/01/19 06:11:39;;;;;;;5.90;1.00;;;;;;;16.30;46.12;95726.03;10373025;28;20757;-28
2023/01/19 06:16:40;;;;;;;3.30;1.33;;;;;;;16.26;45.31;95731.97;10370549;28;20206;-28
2023/01/19 06:21:40;;;;;;;14.57;1.20;;;;;;;16.28;45.06;95732.78;10363162;28;20030;-28
2023/01/19 06:26:43;;;;;;;1.98;0.93;;;;;;;16.29;44.98;95747.09;10376640;28;20110;-28
2023/01/19 06:31:44;;;;;;;5.30;1.42;;;;;;;16.21;45.20;95746.31;10376683;28;20025;-28
2023/01/19 06:36:45;;;;;;;6.67;1.40;;;;;;;16.11;44.11;95749.75;10371453;28;20045;-28
2023/01/19 06:41:45;;;;;;;4.00;1.50;;;;;;;16.24;44.98;95751.34;10372127;28;20298;-27
2023/01/19 06:46:47;;;;;;;5.90;1.30;;;;;;;16.24;44.54;95753.03;10374127;28;20037;-28
2023/01/19 06:51:48;;;;;;;2.55;1.30;;;;;;;16.24;44.28;95758.94;10379003;28;20490;-28
2023/01/19 06:56:48;;;;;;;3.30;1.10;;;;;;;16.22;44.38;95755.59;10390814;28;20033;-28
2023/01/19 07:01:48;;;;;;;2.07;1.13;;;;;;;16.24;43.96;95755.56;10364575;28;20113;-26
2023/01/19 07:06:49;;;;;;;2.13;0.83;;;;;;;16.23;44.42;95759.78;10370398;28;20495;-27
2023/01/19 07:11:49;;;;;;;4.15;1.10;;;;;;;16.20;44.26;95754.72;10381800;28;20167;-28
2023/01/19 07:16:49;;;;;;;1.07;0.77;;;;;;;16.20;44.70;95747.16;10364961;28;20049;-28
2023/01/19 07:21:50;;;;;;;2.50;0.93;;;;;;;16.19;43.69;95758.09;10362810;28;20064;-27
2023/01/19 07:26:50;;;;;;;1.27;1.00;;;;;;;16.19;44.13;95759.81;10380679;28;20417;-29
2023/01/19 07:31:53;;;;;;;1.83;1.00;;;;;;;16.17;44.91;95757.28;10362598;28;20026;-27
2023/01/19 07:36:54;;;;;;;2.30;1.05;;;;;;;16.14;45.00;95748.88;10370184;28;20113;-28
2023/01/19 07:41:55;;;;;;;1.10;0.77;;;;;;;16.17;44.09;95757.28;10375968;28;20032;-29
2023/01/19 07:46:56;;;;;;;1.52;1.08;;;;;;;16.17;43.68;95754.75;10363259;28;20025;-28
2023/01/19 07:51:57;;;;;;;1.83;1.27;;;;;;;16.15;44.33;95766.56;10380662;28;20025;-27
2023/01/19 07:56:59;;;;;;;1.60;0.70;;;;;;;16.11;44.05;95759.84;10371884;28;20545;-28
2023/01/19 08:01:59;;;;;;;1.55;0.80;;;;;;;16.14;44.24;95764.88;10362948;28;20351;-28
2023/01/19 08:07:00;;;;;;;1.13;0.90;;;;;;;16.13;44.02;95763.19;10362785;28;20034;-28
2023/01/19 08:12:01;;;;;;;1.30;0.77;;;;;;;16.11;44.27;95769.94;10389864;28;20574;-29
2023/01/19 08:17:02;;;;;;;1.20;0.80;;;;;;;16.10;44.38;95772.50;10362363;28;20026;-29
2023/01/19 08:22:03;;;;;;;1.40;1.00;;;;;;;16.07;44.39;95778.38;10381698;28;20037;-28
2023/01/19 08:27:03;;;;;;;1.00;0.80;;;;;;;16.07;44.25;95772.50;10371362;28;20038;-28
2023/01/19 08:32:05;;;;;;;1.60;0.70;;;;;;;16.08;44.20;95780.06;10386079;28;20660;-29
2023/01/19 08:37:07;;;;;;;1.55;0.90;;;;;;;16.07;44.22;95778.38;10382980;28;20506;-27
2023/01/19 08:42:08;;;;;;;2.15;0.73;;;;;;;16.06;43.76;95776.72;10368304;28;20038;-28
2023/01/19 08:47:08;;;;;;;1.75;0.88;;;;;;;16.05;43.83;95777.56;10390758;28;20489;-28
2023/01/19 08:52:09;;;;;;;1.63;0.70;;;;;;;16.08;44.41;95791.84;10383373;28;20025;-27
2023/01/19 08:57:09;;;;;;;0.77;0.77;;;;;;;16.06;44.31;95806.16;10371655;28;20784;-27
2023/01/19 09:02:09;;;;;;;1.27;0.90;;;;;;;16.06;44.12;95808.69;10371313;28;20104;-28
2023/01/19 09:07:10;;;;;;;1.13;0.75;;;;;;;16.04;43.91;95808.69;10362220;28;20506;-28
2023/01/19 09:12:10;;;;;;;1.00;0.80;;;;;;;16.01;44.37;95818.81;10369972;28;20574;-27
2023/01/19 09:17:13;;;;;;;0.60;0.60;;;;;;;16.00;44.07;95827.22;10376057;28;20060;-28
2023/01/19 09:22:13;;;;;;;1.30;0.70;;;;;;;15.99;43.76;95828.06;10365196;28;20034;-27
2023/01/19 09:27:14;;;;;;;1.03;0.70;;;;;;;15.98;44.03;95821.34;10379647;28;20029;-28
2023/01/19 09:32:14;;;;;;;1.00;0.83;;;;;;;15.97;43.35;95817.16;10358740;28;20030;-28
2023/01/19 09:37:15;;;;;;;1.63;1.00;;;;;;;15.94;43.56;95816.31;10362455;28;20041;-27
2023/01/19 09:42:40;;;;;;;2.08;1.10;;;;;;;15.94;43.78;95808.75;10368781;28;20042;-28
2023/01/19 09:47:40;;;;;;;1.05;0.70;;;;;;;15.94;43.85;95811.28;10376380;28;21124;-26
2023/01/19 09:52:46;;;;;;;1.33;0.70;;;;;;;15.91;43.62;95804.56;10370903;28;20034;-27
2023/01/19 09:57:47;;;;;;;1.20;1.00;;;;;;;15.89;43.43;95803.72;10374418;28;20034;-27
2023/01/19 10:02:54;;;;;;;1.00;0.77;;;;;;;15.92;43.96;95808.75;10365876;28;20493;-27
2023/01/19 10:08:15;;;;;;;1.83;1.00;;;;;;;15.88;43.67;95796.16;10363669;28;20091;-27
2023/01/19 10:13:26;;;;;;;0.82;0.68;;;;;;;15.92;44.30;95800.31;10390065;28;20434;-27
2023/01/19 10:18:50;;;;;;;0.98;0.82;;;;;;;15.94;44.34;95806.22;10384711;28;20030;-28
2023/01/19 10:23:54;;;;;;;1.42;1.05;;;;;;;15.94;44.79;95817.16;10374894;28;20045;-28
2023/01/19 10:29:04;;;;;;;1.55;0.90;;;;;;;15.91;43.58;95806.22;10389205;28;20060;-27
2023/01/19 10:34:04;;;;;;;1.08;0.70;;;;;;;15.93;43.87;95812.94;10379810;28;20034;-27
2023/01/19 10:39:06;;;;;;;0.90;0.80;;;;;;;15.99;43.81;95810.41;10394204;28;20348;-27
2023/01/19 10:44:09;;;;;;;1.10;0.77;;;;;;;15.99;43.38;95812.94;10388251;28;20041;-27
2023/01/19 10:49:25;;;;;;;1.38;0.85;;;;;;;16.00;43.88;95809.56;10364500;28;20140;-28
2023/01/19 10:54:28;;;;;;;2.05;1.00;;;;;;;15.99;43.93;95807.88;10375965;28;20490;-27
2023/01/19 10:59:33;;;;;;;0.95;0.80;;;;;;;15.96;44.17;95807.06;10388112;28;20095;-28
2023/01/19 11:04:33;;;;;;;0.98;0.80;;;;;;;15.92;43.50;95803.72;10363902;28;20037;-26
2023/01/19 11:09:34;;;;;;;1.10;0.90;;;;;;;15.89;43.72;95802.88;10369417;28;20497;-28
2023/01/19 11:14:34;;;;;;;2.23;1.10;;;;;;;15.88;43.18;95804.56;10374173;28;20030;-28
2023/01/19 11:19:35;;;;;;;1.73;1.17;;;;;;;15.92;43.24;95801.19;10369751;28;20050;-28
2023/01/19 11:24:37;;;;;;;1.75;1.00;;;;;;;15.84;42.71;95790.28;10369705;28;20045;-28
2023/01/19 11:29:38;;;;;;;2.13;1.10;;;;;;;15.98;43.23;95788.53;10370640;28;20034;-28
2023/01/19 11:34:38;;;;;;;1.13;0.77;;;;;;;16.02;43.82;95795.25;10366507;28;20390;-27
2023/01/19 11:39:48;;;;;;;3.35;1.90;;;;;;;15.73;42.14;95794.53;10365911;28;20296;-28
2023/01/19 11:45:12;;;;;;;5.10;3.08;;;;;;;15.79;41.74;95791.97;10370759;28;20030;-27
2023/01/19 11:50:23;;;;;;;2.03;1.50;;;;;;;15.98;43.36;95768.34;10366768;28;20168;-28
2023/01/19 11:55:50;;;;;;;1.92;1.20;;;;;;;16.05;43.97;95764.94;10367137;28;20041;-27
2023/01/19 12:00:55;;;;;;;3.58;1.35;;;;;;;16.08;44.69;95769.97;10360459;28;20050;-28
2023/01/19 12:06:13;;;;;;;2.45;1.70;;;;;;;16.13;43.37;95763.19;10363786;28;20119;-28
2023/01/19 12:11:25;;;;;;;7.15;2.72;;;;;;;16.09;44.78;95769.13;10365243;28;20030;-27
2023/01/19 12:16:29;;;;;;;11.98;2.53;;;;;;;16.14;45.57;95764.03;10370045;28;20562;-28
2023/01/19 12:21:29;;;;;;;7.78;1.63;;;;;;;16.22;45.02;95757.25;10371203;28;20029;-27
2023/01/19 12:26:36;;;;;;;6.90;2.10;;;;;;;16.23;44.99;95754.72;10355162;28;20034;-28
2023/01/19 12:31:39;;;;;;;3.75;2.20;;;;;;;16.10;42.18;95754.81;10356857;28;20296;-28
2023/01/19 12:36:39;;;;;;;6.13;1.80;;;;;;;16.17;44.32;95758.97;10365642;28;20038;-27
2023/01/19 12:41:41;;;;;;;8.35;1.80;;;;;;;16.14;43.20;95759.84;10369709;28;20391;-29
2023/01/19 12:46:45;;;;;;;5.93;1.52;;;;;;;16.17;44.26;95748.84;10364105;28;20307;-26
2023/01/19 12:51:47;;;;;;;3.88;1.95;;;;;;;16.18;44.34;95750.56;10374263;28;20438;-27
2023/01/19 12:56:48;;;;;;;2.53;1.55;;;;;;;16.19;45.12;95758.09;10368936;28;20072;-27
2023/01/19 13:02:19;;;;;;;2.75;1.83;;;;;;;16.19;45.29;95755.59;10366620;28;20091;-26
2023/01/19 13:07:19;;;;;;;1.63;1.00;;;;;;;16.23;43.73;95754.72;10371196;28;20109;-27
2023/01/19 13:12:22;;;;;;;2.63;1.30;;;;;;;16.17;45.33;95744.66;10368187;28;20387;-28
2023/01/19 13:17:31;;;;;;;2.05;1.10;;;;;;;16.21;44.85;95756.41;10361249;28;20390;-28
2023/01/19 13:22:51;;;;;;;3.95;1.20;;;;;;;16.19;45.30;95757.28;10369699;28;20545;-28
2023/01/19 13:27:52;;;;;;;2.13;1.30;;;;;;;16.18;44.31;95753.09;10386534;28;20108;-28
2023/01/19 13:32:56;;;;;;;2.33;1.02;;;;;;;16.18;45.19;95756.44;10366260;28;20061;-27
2023/01/19 13:37:57;;;;;;;4.25;1.52;;;;;;;16.17;44.63;95753.91;10376292;28;20069;-28
2023/01/19 13:42:58;;;;;;;2.80;1.73;;;;;;;16.18;43.91;95756.44;10377962;28;20033;-28
2023/01/19 13:48:01;;;;;;;3.33;2.03;;;;;;;16.17;44.41;95764.84;10377244;28;20497;-27
2023/01/19 13:53:03;;;;;;;4.68;3.35;;;;;;;16.20;43.99;95759.78;10384121;28;20026;-27
2023/01/19 13:58:03;;;;;;;3.10;1.80;;;;;;;16.18;44.90;95756.44;10386410;28;20482;-28
2023/01/19 14:03:04;;;;;;;1.93;1.60;;;;;;;16.17;44.53;95764.84;10372976;28;20069;-28
2023/01/19 14:08:04;;;;;;;3.20;1.30;;;;;;;16.14;43.80;95752.25;10374345;28;20037;-27
2023/01/19 14:13:18;;;;;;;2.90;1.40;;;;;;;16.18;44.07;95756.44;10383943;28;20116;-27
2023/01/19 14:18:18;;;;;;;1.80;1.20;;;;;;;16.18;44.48;95755.63;10366261;28;20034;-28
2023/01/19 14:23:41;;;;;;;4.75;1.23;;;;;;;16.22;43.80;95762.31;10371899;28;20041;-27
2023/01/19 14:28:44;;;;;;;2.20;1.30;;;;;;;16.19;43.51;95759.81;10366981;28;20044;-28
2023/01/19 14:33:45;;;;;;;1.60;1.13;;;;;;;16.19;44.60;95757.28;10386411;28;20040;-26
2023/01/19 14:39:17;;;;;;;3.50;1.25;;;;;;;16.16;45.05;95758.13;10355160;28;20046;-28
2023/01/19 14:44:24;;;;;;;3.92;1.40;;;;;;;16.13;44.38;95750.56;10368139;28;20030;-27
2023/01/19 14:49:35;;;;;;;2.85;1.00;;;;;;;16.17;43.42;95754.75;10367696;28;20041;-27
2023/01/19 14:54:39;;;;;;;2.70;1.42;;;;;;;16.10;45.17;95763.22;10370452;28;20049;-27
2023/01/19 14:59:40;;;;;;;2.35;1.70;;;;;;;15.75;42.19;95757.53;10365499;28;20495;-28
2023/01/19 15:04:41;;;;;;;3.70;1.40;;;;;;;15.89;42.84;95758.31;10363028;28;20038;-27
2023/01/19 15:09:41;;;;;;;7.87;1.40;;;;;;;16.03;44.53;95755.69;10359501;28;20029;-28
2023/01/19 15:14:42;;;;;;;5.40;1.33;;;;;;;16.04;44.51;95755.66;10360460;28;20509;-29
2023/01/19 15:19:43;;;;;;;5.53;1.20;;;;;;;16.08;44.61;95749.78;10387312;28;20034;-27
2023/01/19 15:24:43;;;;;;;2.10;1.00;;;;;;;16.11;44.36;95749.75;10371536;28;20045;-27
2023/01/19 15:29:44;;;;;;;3.47;1.63;;;;;;;16.12;44.15;95755.63;10366409;28;20037;-28
2023/01/19 15:34:45;;;;;;;1.98;1.02;;;;;;;16.09;44.93;95756.50;10367336;28;20072;-28
2023/01/19 15:39:45;;;;;;;5.07;1.10;;;;;;;16.11;45.50;95756.50;10360017;28;20065;-28
2023/01/19 15:44:45;;;;;;;3.53;1.40;;;;;;;16.09;48.03;95755.63;10375908;28;20157;-27
2023/01/19 15:49:46;;;;;;;4.40;1.60;;;;;;;16.12;47.30;95756.47;10372839;28;20033;-28
2023/01/19 15:54:46;;;;;;;5.83;1.20;;;;;;;16.15;46.48;95755.59;10370688;28;20292;-28
2023/01/19 15:59:46;;;;;;;6.50;1.33;;;;;;;16.13;47.39;95757.31;10361476;28;20073;-27
2023/01/19 16:04:48;;;;;;;50.00;3.83;;;;;;;16.08;46.31;95754.81;10363487;28;20030;-26
2023/01/19 16:09:48;;;;;;;6.40;1.50;;;;;;;16.10;45.94;95750.59;10360088;28;20038;-28
2023/01/19 16:14:49;;;;;;;9.27;2.60;;;;;;;15.90;44.70;95749.88;10363853;28;20502;-28
2023/01/19 16:19:49;;;;;;;8.33;1.87;;;;;;;16.01;46.91;95755.69;10363779;28;20037;-28
2023/01/19 16:24:51;;;;;;;8.20;2.20;;;;;;;16.07;48.06;95763.25;10371010;28;20038;-27
2023/01/19 16:29:52;;;;;;;4.20;1.70;;;;;;;16.11;47.19;95752.25;10363590;28;20037;-27
2023/01/19 16:34:52;;;;;;;4.90;1.60;;;;;;;16.13;47.14;95753.09;10367203;28;20537;-28
2023/01/19 16:39:53;;;;;;;6.22;1.50;;;;;;;16.10;48.02;95748.06;10367287;28;20034;-27
2023/01/19 16:44:53;;;;;;;5.97;2.47;;;;;;;16.15;46.68;95756.47;10371259;28;20034;-27
2023/01/19 16:49:53;;;;;;;6.13;2.57;;;;;;;16.16;47.39;95750.56;10375450;28;20296;-28
2023/01/19 16:54:54;;;;;;;6.03;2.83;;;;;;;16.17;47.13;95749.72;10367743;28;20041;-28
2023/01/19 16:59:54;;;;;;;5.63;2.30;;;;;;;16.15;46.48;95746.38;10372716;28;20037;-28
2023/01/19 17:04:55;;;;;;;9.43;4.07;;;;;;;15.66;41.39;95750.00;10365851;28;20779;-28
2023/01/19 17:09:55;;;;;;;11.77;3.43;;;;;;;15.90;44.69;95749.88;10358387;28;20045;-28
2023/01/19 17:14:55;;;;;;;9.40;3.43;;;;;;;16.01;44.55;95747.28;10372058;28;20284;-28
2023/01/19 17:19:56;;;;;;;8.70;3.00;;;;;;;16.04;44.86;95753.16;10368287;28;20084;-28
2023/01/19 17:24:56;;;;;;;7.10;2.83;;;;;;;16.10;44.38;95742.19;10364452;28;20040;-28
2023/01/19 17:29:56;;;;;;;9.00;2.77;;;;;;;16.08;44.66;95749.78;10372865;28;20064;-27
2023/01/19 17:34:57;;;;;;;4.70;2.70;;;;;;;16.06;44.63;95748.94;10359837;28;20033;-27
2023/01/19 17:39:57;;;;;;;7.67;2.63;;;;;;;16.02;45.43;95747.28;10366175;28;20520;-27
2023/01/19 17:44:57;;;;;;;8.47;2.50;;;;;;;16.03;45.11;95748.94;10365332;28;20045;-28
2023/01/19 17:49:58;;;;;;;4.60;2.53;;;;;;;16.04;45.47;95757.38;10363775;28;20038;-28
2023/01/19 17:54:58;;;;;;;6.53;2.47;;;;;;;16.06;46.16;95751.47;10372017;28;20099;-28
2023/01/19 17:59:58;;;;;;;6.93;2.30;;;;;;;16.06;46.89;95741.38;10373731;28;20026;-27
2023/01/19 18:05:01;;;;;;;5.20;2.90;;;;;;;16.08;48.43;95741.34;10373357;28;20050;-27
2023/01/19 18:10:02;;;;;;;3.35;2.03;;;;;;;16.09;48.28;95746.41;10354668;28;20785;-28
2023/01/19 18:15:03;;;;;;;5.60;2.58;;;;;;;16.09;47.68;95746.41;10361463;28;20242;-27
2023/01/19 18:20:04;;;;;;;10.55;2.30;;;;;;;16.09;48.06;95743.00;10368480;28;20059;-28
2023/01/19 18:25:05;;;;;;;5.65;2.38;;;;;;;16.09;47.01;95740.50;10371723;28;20054;-28
2023/01/19 18:30:06;;;;;;;3.58;2.20;;;;;;;16.10;46.84;95729.56;10369462;28;20038;-28
2023/01/19 18:35:07;;;;;;;6.57;2.22;;;;;;;16.13;45.42;95730.38;10367752;28;20034;-27
2023/01/19 18:40:08;;;;;;;4.88;2.97;;;;;;;16.12;45.28;95741.31;10369613;28;20025;-28
2023/01/19 18:45:09;;;;;;;5.60;2.40;;;;;;;16.11;45.60;95739.63;10360562;28;20045;-28
2023/01/19 18:50:11;;;;;;;5.38;2.20;;;;;;;16.07;46.75;95727.06;10360974;28;20442;-27
2023/01/19 18:55:11;;;;;;;3.35;2.28;;;;;;;16.09;46.12;95725.34;10356802;28;20018;-26
2023/01/19 19:00:12;;;;;;;5.50;2.53;;;;;;;16.08;45.72;95727.06;10364308;28;20431;-28
2023/01/19 19:05:13;;;;;;;5.57;2.28;;;;;;;16.09;46.32;95730.41;10352781;28;20453;-27
2023/01/19 19:10:13;;;;;;;4.22;2.33;;;;;;;16.09;46.13;95730.41;10357231;28;20030;-28
2023/01/19 19:15:14;;;;;;;2.40;1.90;;;;;;;16.13;45.18;95724.50;10368793;28;20544;-28
2023/01/19 19:20:15;;;;;;;3.92;2.03;;;;;;;16.13;45.58;95727.84;10358787;28;20034;-28
2023/01/19 19:25:17;;;;;;;2.50;1.70;;;;;;;16.13;45.76;95722.78;10359727;28;20044;-28
2023/01/19 19:30:19;;;;;;;4.85;2.35;;;;;;;16.16;44.47;95727.84;10359970;28;20490;-27
2023/01/19 19:35:20;;;;;;;2.28;1.90;;;;;;;16.15;44.99;95731.22;10359285;28;20034;-28
2023/01/19 19:40:20;;;;;;;2.72;1.90;;;;;;;16.15;44.54;95726.16;10362480;28;20493;-28
2023/01/19 19:45:20;;;;;;;4.07;1.87;;;;;;;16.12;45.28;95731.22;10351992;28;20040;-28
2023/01/19 19:50:21;;;;;;;2.73;1.93;;;;;;;16.14;45.71;95724.50;10359224;28;20036;-27
2023/01/19 19:55:21;;;;;;;3.53;1.80;;;;;;;16.09;45.59;95718.63;10364809;28;20292;-28
2023/01/19 20:00:21;;;;;;;5.70;2.10;;;;;;;16.06;46.16;95736.31;10369436;28;20036;-28
2023/01/19 20:05:22;;;;;;;2.30;1.65;;;;;;;16.07;46.81;95732.94;10376279;28;20792;-28
2023/01/19 20:10:24;;;;;;;5.20;1.80;;;;;;;16.03;45.89;95741.38;10363632;28;20068;-28
2023/01/19 20:15:24;;;;;;;3.88;2.17;;;;;;;15.99;47.08;95741.41;10364454;28;20030;-28
2023/01/19 20:20:26;;;;;;;7.93;1.80;;;;;;;16.00;47.47;95746.44;10368566;28;20049;-28
2023/01/19 20:25:27;;;;;;;2.83;1.63;;;;;;;16.05;48.52;95744.75;10372005;28;20034;-28
2023/01/19 20:30:27;;;;;;;4.03;1.80;;;;;;;16.05;48.72;95756.53;10362715;28;20046;-28
2023/01/19 20:35:28;;;;;;;3.13;1.93;;;;;;;16.07;48.93;95743.03;10364848;28;20409;-28
2023/01/19 20:40:28;;;;;;;3.20;1.50;;;;;;;16.10;48.75;95744.72;10362266;28;20293;-27
2023/01/19 20:45:29;;;;;;;5.50;2.10;;;;;;;16.12;48.34;95756.47;10366908;28;20783;-27
2023/01/19 20:50:29;;;;;;;5.05;1.77;;;;;;;16.09;48.10;95756.50;10366862;28;20565;-28
2023/01/19 20:55:30;;;;;;;3.13;1.87;;;;;;;16.08;47.88;95756.50;10363083;28;20433;-28
2023/01/19 21:00:30;;;;;;;4.30;2.13;;;;;;;16.09;47.54;95759.00;10359866;28;20518;-27
2023/01/19 21:05:30;;;;;;;2.28;1.50;;;;;;;16.14;47.24;95769.94;10359524;28;20619;-29
2023/01/19 21:10:31;;;;;;;3.07;1.93;;;;;;;16.18;46.51;95765.72;10355225;28;20037;-27
2023/01/19 21:15:31;;;;;;;2.17;1.42;;;;;;;16.16;46.59;95768.25;10366529;28;20030;-27
2023/01/19 21:20:32;;;;;;;2.77;1.90;;;;;;;16.15;47.23;95785.91;10360395;28;20048;-28
2023/01/19 21:25:32;;;;;;;3.33;1.80;;;;;;;16.21;44.67;95776.59;10357464;28;20034;-27
2023/01/19 21:30:35;;;;;;;2.05;1.60;;;;;;;16.15;45.82;95776.66;10356574;28;20025;-28
2023/01/19 21:35:36;;;;;;;2.40;1.60;;;;;;;16.18;44.57;95791.78;10355443;28;20380;-28
2023/01/19 21:40:36;;;;;;;1.85;1.55;;;;;;;16.19;43.84;95790.94;10354808;28;20037;-27
2023/01/19 21:45:37;;;;;;;2.73;1.63;;;;;;;16.17;44.31;95795.16;10360762;28;20407;-28
2023/01/19 21:50:40;;;;;;;3.30;1.93;;;;;;;16.18;43.10;95791.78;10369403;28;20026;-28
2023/01/19 21:55:43;;;;;;;4.07;1.60;;;;;;;16.17;42.82;95794.31;10356357;28;20406;-28
2023/01/19 22:00:44;;;;;;;3.28;1.73;;;;;;;16.19;42.92;95802.72;10362698;28;20037;-27
2023/01/19 22:05:44;;;;;;;3.92;2.00;;;;;;;16.23;43.17;95807.75;10372959;28;20071;-28
2023/01/19 22:10:44;;;;;;;3.30;1.70;;;;;;;16.25;42.90;95811.09;10368330;28;20045;-27
2023/01/19 22:15:45;;;;;;;5.60;1.87;;;;;;;16.14;45.63;95827.16;10367468;28;20041;-29
2023/01/19 22:20:45;;;;;;;4.30;1.60;;;;;;;16.10;46.40;95828.84;10374604;28;20046;-27
2023/01/19 22:25:46;;;;;;;5.37;1.73;;;;;;;16.10;47.76;95823.81;10376195;28;20049;-27
2023/01/19 22:30:46;;;;;;;4.65;1.90;;;;;;;16.11;47.50;95830.53;10368397;28;20307;-27
2023/01/19 22:35:46;;;;;;;2.83;1.37;;;;;;;16.10;48.92;95828.84;10371119;28;20038;-28
2023/01/19 22:40:49;;;;;;;2.30;1.43;;;;;;;16.07;48.38;95833.94;10371634;28;20038;-27
2023/01/19 22:45:49;;;;;;;2.95;1.50;;;;;;;16.04;49.03;95838.16;10371639;28;20038;-28
2023/01/19 22:50:54;;;;;;;2.50;1.50;;;;;;;16.04;49.10;95836.44;10370740;28;20037;-28
2023/01/19 22:55:55;;;;;;;2.65;1.33;;;;;;;16.03;48.76;95842.34;10366122;28;20542;-27
2023/01/19 23:00:55;;;;;;;3.20;1.50;;;;;;;16.03;49.11;95854.97;10366308;28;20076;-28
2023/01/19 23:05:55;;;;;;;3.87;1.77;;;;;;;16.03;49.13;95856.69;10372149;28;20115;-29
2023/01/19 23:10:56;;;;;;;2.33;1.40;;;;;;;16.04;48.80;95858.34;10368812;28;20109;-28
2023/01/19 23:15:57;;;;;;;2.43;1.57;;;;;;;16.03;48.39;95866.78;10371636;28;20045;-29
2023/01/19 23:21:02;;;;;;;1.88;1.52;;;;;;;16.03;48.79;95862.53;10361946;28;20045;-27
2023/01/19 23:26:15;;;;;;;2.22;1.55;;;;;;;16.05;47.84;95876.03;10364671;28;20121;-27
2023/01/19 23:31:22;;;;;;;3.17;1.35;;;;;;;16.04;48.73;95868.44;10364674;28;20548;-28